createdAt,value
2022-10-23T00:01:47.580Z,100327.29
2022-10-23T00:04:21.849Z,100330.57
2022-10-23T00:06:49.977Z,100328.59
2022-10-23T00:09:21.919Z,100330.75
2022-10-23T00:11:51.551Z,100340.10
2022-10-23T00:14:23.093Z,100343.16
2022-10-23T00:16:51.460Z,100347.84
2022-10-23T00:19:19.302Z,100338.39
2022-10-23T00:21:47.209Z,100334.60
2022-10-23T00:24:15.065Z,100334.75
2022-10-23T00:26:43.012Z,100335.81
2022-10-23T00:29:11.338Z,100334.75
2022-10-23T00:31:39.566Z,100342.08
2022-10-23T00:34:08.634Z,100346.85
2022-10-23T00:36:38.060Z,100347.95
2022-10-23T00:39:06.314Z,100347.40
2022-10-23T00:41:35.070Z,100342.71
2022-10-23T00:44:05.250Z,100340.27
2022-10-23T00:46:33.708Z,100346.48
2022-10-23T00:49:02.680Z,100339.43
2022-10-23T00:51:39.199Z,100336.66
2022-10-23T00:54:25.093Z,100339.49
2022-10-23T00:56:56.262Z,100343.94
2022-10-23T00:59:24.611Z,100346.80
2022-10-23T01:01:52.723Z,100340.45
2022-10-23T01:04:22.549Z,100340.11
2022-10-23T01:07:02.713Z,100346.17
2022-10-23T01:10:07.996Z,100348.66
2022-10-23T01:12:47.227Z,100343.88
2022-10-23T01:15:21.416Z,100338.82
2022-10-23T01:18:00.115Z,100332.55
2022-10-23T01:20:45.456Z,100330.63
2022-10-23T01:23:29.235Z,100338.79
2022-10-23T01:26:24.342Z,100347.38
2022-10-23T01:28:57.955Z,100355.23
2022-10-23T01:31:37.503Z,100355.05
2022-10-23T01:34:22.457Z,100351.75
2022-10-23T01:36:53.410Z,100351.35
2022-10-23T01:39:27.831Z,100351.23
2022-10-23T01:42:22.589Z,100348.66
2022-10-23T01:44:58.652Z,100340.53
2022-10-23T01:47:31.190Z,100335.15
2022-10-23T01:50:06.373Z,100339.69
2022-10-23T01:52:34.987Z,100338.88
2022-10-23T01:55:07.532Z,100341.59
2022-10-23T01:57:39.587Z,100346.50
2022-10-23T02:00:12.570Z,100337.19
2022-10-23T02:02:54.764Z,100331.03
2022-10-23T02:05:29.609Z,100324.19
2022-10-23T02:07:59.323Z,100320.70
2022-10-23T02:10:43.494Z,100323.28
2022-10-23T02:13:25.103Z,100328.47
2022-10-23T02:16:24.313Z,100326.36
2022-10-23T02:18:52.107Z,100325.66
2022-10-23T02:21:41.643Z,100326.30
2022-10-23T02:24:13.789Z,100327.73
2022-10-23T02:26:57.358Z,100333.54
2022-10-23T02:29:34.730Z,100336.97
2022-10-23T02:32:03.543Z,100331.98
2022-10-23T02:34:31.885Z,100334.69
2022-10-23T02:36:59.811Z,100335.64
2022-10-23T02:39:28.959Z,100341.55
2022-10-23T02:42:03.081Z,100344.26
2022-10-23T02:44:42.978Z,100347.42
2022-10-23T02:47:39.316Z,100359.04
2022-10-23T02:50:34.900Z,100370.90
2022-10-23T02:53:28.093Z,100374.89
2022-10-23T02:56:28.169Z,100379.98
2022-10-23T02:59:21.670Z,100379.33
2022-10-23T03:02:19.659Z,100384.73
2022-10-23T03:04:48.859Z,100388.41
2022-10-23T03:07:19.645Z,100389.36
2022-10-23T03:09:47.912Z,100391.99
2022-10-23T03:12:15.890Z,100398.43
2022-10-23T03:14:43.741Z,100403.23
2022-10-23T03:17:11.586Z,100407.30
2022-10-23T03:19:39.452Z,100407.60
2022-10-23T03:22:07.313Z,100411.97
2022-10-23T03:24:35.263Z,100415.27
2022-10-23T03:27:03.269Z,100418.97
2022-10-23T03:29:32.851Z,100426.15
2022-10-23T03:32:00.672Z,100438.32
2022-10-23T03:34:28.619Z,100443.65
2022-10-23T03:36:56.445Z,100437.30
2022-10-23T03:39:24.318Z,100440.23
2022-10-23T03:41:52.239Z,100448.20
2022-10-23T03:44:22.549Z,100443.09
2022-10-23T03:46:50.577Z,100447.06
2022-10-23T03:49:18.519Z,100455.13
2022-10-23T03:51:52.042Z,100453.95
2022-10-23T03:54:23.826Z,100453.16
2022-10-23T03:56:56.521Z,100454.60
2022-10-23T03:59:25.747Z,100450.75
2022-10-23T04:01:54.359Z,100451.50
2022-10-23T04:04:25.252Z,100458.33
2022-10-23T04:06:53.188Z,100466.91
2022-10-23T04:09:21.943Z,100468.66
2022-10-23T04:11:49.849Z,100474.75
2022-10-23T04:14:18.039Z,100477.84
2022-10-23T04:16:45.952Z,100483.07
2022-10-23T04:19:14.093Z,100487.39
2022-10-23T04:21:42.304Z,100487.59
2022-10-23T04:24:10.416Z,100482.92
2022-10-23T04:26:38.586Z,100476.14
2022-10-23T04:29:06.569Z,100473.39
2022-10-23T04:31:34.697Z,100474.32
2022-10-23T04:34:02.714Z,100470.38
2022-10-23T04:36:32.297Z,100470.69
2022-10-23T04:39:08.033Z,100476.20
2022-10-23T04:41:39.006Z,100484.55
2022-10-23T04:44:08.184Z,100488.56
2022-10-23T04:46:39.392Z,100490.66
2022-10-23T04:49:07.719Z,100491.80
2022-10-23T04:52:10.960Z,100493.05
2022-10-23T04:54:54.285Z,100494.69
2022-10-23T04:57:43.634Z,100494.33
2022-10-23T05:00:15.715Z,100498.56
2022-10-23T05:02:48.851Z,100499.61
2022-10-23T05:05:18.292Z,100497.34
2022-10-23T05:08:15.633Z,100500.31
2022-10-23T05:11:06.198Z,100503.62
2022-10-23T05:13:39.590Z,100509.36
2022-10-23T05:16:07.389Z,100510.55
2022-10-23T05:18:45.652Z,100511.72
2022-10-23T05:21:28.256Z,100509.64
2022-10-23T05:23:57.402Z,100513.54
2022-10-23T05:26:26.235Z,100521.07
2022-10-23T05:28:54.413Z,100525.31
2022-10-23T05:31:24.628Z,100531.13
2022-10-23T05:33:55.129Z,100530.32
2022-10-23T05:36:24.891Z,100528.77
2022-10-23T05:38:58.023Z,100531.77
2022-10-23T05:41:26.782Z,100537.73
2022-10-23T05:43:58.534Z,100540.13
2022-10-23T05:46:44.834Z,100551.70
2022-10-23T05:49:41.659Z,100560.52
2022-10-23T05:52:28.674Z,100563.55
2022-10-23T05:55:16.459Z,100571.83
2022-10-23T05:57:49.990Z,100575.90
2022-10-23T06:00:23.327Z,100575.98
2022-10-23T06:03:00.507Z,100582.16
2022-10-23T06:08:20.027Z,100594.56
2022-10-23T06:10:49.919Z,100597.27
2022-10-23T06:13:17.805Z,100603.17
2022-10-23T06:15:45.744Z,100606.96
2022-10-23T06:18:20.636Z,100603.75
2022-10-23T06:20:54.349Z,100606.99
2022-10-23T06:23:25.929Z,100608.66
2022-10-23T06:26:05.139Z,100607.88
2022-10-23T06:28:40.129Z,100607.58
2022-10-23T06:31:09.914Z,100611.80
2022-10-23T06:33:37.758Z,100618.65
2022-10-23T06:36:10.567Z,100620.09
2022-10-23T06:38:40.828Z,100618.73
2022-10-23T06:41:35.672Z,100623.87
2022-10-23T06:44:04.100Z,100628.45
2022-10-23T06:46:47.103Z,100632.16
2022-10-23T06:49:33.336Z,100635.50
2022-10-23T06:52:02.299Z,100641.83
2022-10-23T06:54:30.167Z,100649.00
2022-10-23T06:57:21.113Z,100654.44
2022-10-23T06:59:50.405Z,100656.37
2022-10-23T07:02:19.036Z,100657.59
2022-10-23T07:04:48.073Z,100662.33
2022-10-23T07:07:18.818Z,100658.14
2022-10-23T07:09:48.767Z,100656.02
2022-10-23T07:12:39.503Z,100662.30
2022-10-23T07:15:28.362Z,100664.91
2022-10-23T07:17:57.034Z,100656.09
2022-10-23T07:20:25.569Z,100654.48
2022-10-23T07:22:57.162Z,100660.95
2022-10-23T07:25:28.897Z,100668.27
2022-10-23T07:27:56.722Z,100670.36
2022-10-23T07:30:25.506Z,100664.52
2022-10-23T07:32:55.473Z,100659.89
2022-10-23T07:35:41.592Z,100664.09
2022-10-23T07:38:15.095Z,100661.40
2022-10-23T07:40:46.179Z,100653.09
2022-10-23T07:43:18.608Z,100640.74
2022-10-23T07:45:48.794Z,100641.04
2022-10-23T07:48:23.895Z,100647.49
2022-10-23T07:51:08.151Z,100655.85
2022-10-23T07:53:38.884Z,100673.20
2022-10-23T07:56:20.987Z,100683.17
2022-10-23T07:59:13.009Z,100684.86
2022-10-23T08:01:43.039Z,100677.08
2022-10-23T08:04:11.538Z,100664.17
2022-10-23T08:06:45.942Z,100653.16
2022-10-23T08:09:13.889Z,100656.59
2022-10-23T08:11:42.403Z,100667.05
2022-10-23T08:14:10.904Z,100673.95
2022-10-23T08:16:39.907Z,100683.05
2022-10-23T08:19:19.799Z,100686.98
2022-10-23T08:21:48.815Z,100688.87
2022-10-23T08:24:18.081Z,100685.14
2022-10-23T08:26:49.684Z,100684.01
2022-10-23T08:29:18.928Z,100679.73
2022-10-23T08:31:47.702Z,100678.59
2022-10-23T08:34:22.459Z,100680.96
2022-10-23T08:36:51.133Z,100685.15
2022-10-23T08:39:19.155Z,100694.54
2022-10-23T08:42:04.721Z,100701.40
2022-10-23T08:44:40.439Z,100707.86
2022-10-23T08:47:13.773Z,100704.79
2022-10-23T08:50:06.402Z,100708.85
2022-10-23T08:53:01.611Z,100716.30
2022-10-23T08:55:40.649Z,100716.27
2022-10-23T08:58:08.447Z,100719.61
2022-10-23T09:00:36.656Z,100710.75
2022-10-23T09:03:05.946Z,100702.67
2022-10-23T09:06:03.589Z,100698.45
2022-10-23T09:09:13.725Z,100711.17
2022-10-23T09:11:57.631Z,100708.11
2022-10-23T09:15:03.109Z,100709.78
2022-10-23T09:17:35.138Z,100711.67
2022-10-23T09:20:18.157Z,100702.92
2022-10-23T09:22:47.815Z,100701.35
2022-10-23T09:25:22.791Z,100695.77
2022-10-23T09:27:56.679Z,100699.27
2022-10-23T09:30:32.229Z,100705.23
2022-10-23T09:33:01.652Z,100711.98
2022-10-23T09:35:30.896Z,100706.24
2022-10-23T09:37:58.871Z,100702.80
2022-10-23T09:40:43.610Z,100700.80
2022-10-23T09:43:17.629Z,100696.05
2022-10-23T09:45:57.264Z,100688.80
2022-10-23T09:48:26.500Z,100681.94
2022-10-23T09:50:57.169Z,100677.89
2022-10-23T09:53:33.844Z,100675.57
2022-10-23T09:56:12.043Z,100677.93
2022-10-23T09:58:52.413Z,100674.79
2022-10-23T10:01:26.136Z,100671.52
2022-10-23T10:03:57.345Z,100676.36
2022-10-23T10:06:32.751Z,100680.55
2022-10-23T10:09:07.844Z,100678.55
2022-10-23T10:11:58.934Z,100673.15
2022-10-23T10:14:48.059Z,100668.45
2022-10-23T10:17:47.296Z,100670.86
2022-10-23T10:20:24.223Z,100676.01
2022-10-23T10:23:13.252Z,100669.59
2022-10-23T10:26:10.204Z,100667.98
2022-10-23T10:28:40.681Z,100671.95
2022-10-23T10:31:26.359Z,100667.15
2022-10-23T10:34:40.682Z,100661.86
2022-10-23T10:37:33.018Z,100653.98
2022-10-23T10:40:14.060Z,100656.38
2022-10-23T10:42:42.878Z,100645.79
2022-10-23T10:45:39.977Z,100647.03
2022-10-23T10:48:44.413Z,100643.55
2022-10-23T10:51:47.458Z,100639.05
2022-10-23T10:54:36.544Z,100640.33
2022-10-23T10:57:14.022Z,100636.92
2022-10-23T10:59:46.791Z,100630.81
2022-10-23T11:02:28.706Z,100626.17
2022-10-23T11:05:00.750Z,100626.42
2022-10-23T11:07:37.330Z,100629.49
2022-10-23T11:10:18.856Z,100621.57
2022-10-23T11:12:48.184Z,100622.96
2022-10-23T11:15:23.538Z,100620.83
2022-10-23T11:18:06.032Z,100612.96
2022-10-23T11:20:45.178Z,100612.86
2022-10-23T11:23:37.362Z,100608.89
2022-10-23T11:26:07.967Z,100611.10
2022-10-23T11:29:13.540Z,100599.84
2022-10-23T11:32:06.418Z,100588.04
2022-10-23T11:34:51.020Z,100586.20
2022-10-23T11:37:20.813Z,100583.63
2022-10-23T11:40:21.419Z,100576.30
2022-10-23T11:42:50.741Z,100571.50
2022-10-23T11:45:49.034Z,100562.13
2022-10-23T11:48:36.438Z,100565.63
2022-10-23T11:51:05.558Z,100567.46
2022-10-23T11:53:33.416Z,100561.89
2022-10-23T11:56:01.157Z,100548.98
2022-10-23T11:58:45.803Z,100554.06
2022-10-23T12:01:24.480Z,100557.48
2022-10-23T12:04:03.478Z,100556.23
2022-10-23T12:06:40.463Z,100556.36
2022-10-23T12:09:40.988Z,100559.23
2022-10-23T12:12:08.798Z,100559.20
2022-10-23T12:14:42.536Z,100556.62
2022-10-23T12:17:22.599Z,100556.46
2022-10-23T12:19:51.169Z,100558.17
2022-10-23T12:22:21.019Z,100552.81
2022-10-23T12:25:04.186Z,100544.26
2022-10-23T12:27:42.134Z,100535.98
2022-10-23T12:30:39.991Z,100539.80
2022-10-23T12:33:16.631Z,100540.52
2022-10-23T12:36:05.537Z,100546.69
2022-10-23T12:38:35.691Z,100547.71
2022-10-23T12:41:17.154Z,100542.44
2022-10-23T12:43:54.773Z,100546.80
2022-10-23T12:46:35.606Z,100553.99
2022-10-23T12:49:17.698Z,100542.48
2022-10-23T12:51:46.192Z,100540.73
2022-10-23T12:54:19.889Z,100535.44
2022-10-23T12:56:48.294Z,100535.98
2022-10-23T12:59:20.347Z,100534.19
2022-10-23T13:01:52.644Z,100535.60
2022-10-23T13:04:29.305Z,100538.22
2022-10-23T13:06:59.890Z,100533.22
2022-10-23T13:09:32.074Z,100534.38
2022-10-23T13:12:24.576Z,100537.02
2022-10-23T13:15:07.685Z,100541.14
2022-10-23T13:17:37.975Z,100546.39
2022-10-23T13:20:27.124Z,100546.77
2022-10-23T13:23:16.896Z,100546.18
2022-10-23T13:25:56.430Z,100543.57
2022-10-23T13:28:26.995Z,100538.48
2022-10-23T13:31:20.880Z,100536.63
2022-10-23T13:34:05.714Z,100539.79
2022-10-23T13:36:37.551Z,100536.80
2022-10-23T13:39:11.920Z,100534.66
2022-10-23T13:41:45.208Z,100532.53
2022-10-23T13:44:18.962Z,100535.30
2022-10-23T13:46:48.574Z,100537.37
2022-10-23T13:49:16.842Z,100535.52
2022-10-23T13:51:51.940Z,100535.09
2022-10-23T13:54:25.786Z,100537.10
2022-10-23T13:56:55.452Z,100538.83
2022-10-23T13:59:24.078Z,100540.29
2022-10-23T14:01:52.936Z,100540.51
2022-10-23T14:04:21.205Z,100535.91
2022-10-23T14:06:49.326Z,100532.96
2022-10-23T14:09:18.698Z,100537.02
2022-10-23T14:11:46.687Z,100536.52
2022-10-23T14:14:14.571Z,100536.03
2022-10-23T14:16:42.416Z,100535.94
2022-10-23T14:19:11.205Z,100536.48
2022-10-23T14:21:39.176Z,100535.27
2022-10-23T14:24:07.357Z,100532.95
2022-10-23T14:26:35.313Z,100538.65
2022-10-23T14:29:07.622Z,100537.80
2022-10-23T14:31:39.382Z,100544.86
2022-10-23T14:34:07.215Z,100549.45
2022-10-23T14:36:49.286Z,100551.38
2022-10-23T14:39:18.813Z,100552.83
2022-10-23T14:41:47.195Z,100553.89
2022-10-23T14:44:15.011Z,100551.45
2022-10-23T14:46:43.023Z,100551.27
2022-10-23T14:49:11.000Z,100553.13
2022-10-23T14:51:38.770Z,100554.26
2022-10-23T14:54:07.929Z,100552.04
2022-10-23T14:56:38.387Z,100554.04
2022-10-23T14:59:08.050Z,100561.88
2022-10-23T15:01:45.273Z,100565.71
2022-10-23T15:04:15.770Z,100567.16
2022-10-23T15:06:43.682Z,100565.10
2022-10-23T15:09:11.470Z,100564.52
2022-10-23T15:11:40.122Z,100562.44
2022-10-23T15:14:08.563Z,100560.03
2022-10-23T15:16:41.727Z,100560.25
2022-10-23T15:19:18.546Z,100560.31
2022-10-23T15:21:48.036Z,100563.55
2022-10-23T15:24:17.466Z,100565.73
2022-10-23T15:26:45.552Z,100566.35
2022-10-23T15:29:14.969Z,100566.23
2022-10-23T15:31:47.345Z,100568.08
2022-10-23T15:34:19.072Z,100568.35
2022-10-23T15:36:48.381Z,100566.55
2022-10-23T15:39:19.521Z,100573.13
2022-10-23T15:41:50.063Z,100576.63
2022-10-23T15:44:19.739Z,100581.77
2022-10-23T15:46:48.652Z,100583.02
2022-10-23T15:49:16.815Z,100584.28
2022-10-23T15:51:45.285Z,100588.08
2022-10-23T15:54:19.202Z,100591.32
2022-10-23T15:56:50.141Z,100593.11
2022-10-23T15:59:20.883Z,100597.02
2022-10-23T16:01:49.317Z,100603.63
2022-10-23T16:04:18.553Z,100605.86
2022-10-23T16:06:46.713Z,100609.92
2022-10-23T16:09:15.600Z,100609.79
2022-10-23T16:11:43.685Z,100613.48
2022-10-23T16:14:15.282Z,100619.59
2022-10-23T16:16:43.830Z,100623.22
2022-10-23T16:19:12.512Z,100622.60
2022-10-23T16:21:41.505Z,100620.92
2022-10-23T16:24:10.282Z,100621.38
2022-10-23T16:26:39.896Z,100626.39
2022-10-23T16:29:09.753Z,100633.36
2022-10-23T16:31:37.981Z,100636.45
2022-10-23T16:34:06.300Z,100640.41
2022-10-23T16:36:34.848Z,100639.27
2022-10-23T16:39:25.343Z,100640.92
2022-10-23T16:42:26.007Z,100643.25
2022-10-23T16:45:07.777Z,100646.77
2022-10-23T16:47:36.117Z,100649.61
2022-10-23T16:50:04.342Z,100654.58
2022-10-23T16:52:33.412Z,100659.89
2022-10-23T16:55:01.378Z,100657.14
2022-10-23T16:57:29.452Z,100657.55
2022-10-23T16:59:57.475Z,100659.02
2022-10-23T17:02:25.562Z,100667.33
2022-10-23T17:04:53.678Z,100668.08
2022-10-23T17:07:24.171Z,100667.76
2022-10-23T17:09:52.365Z,100674.43
2022-10-23T17:12:20.333Z,100681.63
2022-10-23T17:14:48.245Z,100680.92
2022-10-23T17:17:16.268Z,100684.42
2022-10-23T17:19:45.937Z,100680.74
2022-10-23T17:22:15.477Z,100680.73
2022-10-23T17:24:46.233Z,100674.27
2022-10-23T17:27:17.136Z,100677.56
2022-10-23T17:29:45.018Z,100675.96
2022-10-23T17:32:13.266Z,100679.09
2022-10-23T17:34:41.477Z,100682.21
2022-10-23T17:37:10.368Z,100688.47
2022-10-23T17:39:38.334Z,100687.16
2022-10-23T17:42:06.705Z,100691.15
2022-10-23T17:44:34.673Z,100694.07
2022-10-23T17:47:02.424Z,100699.46
2022-10-23T17:49:30.396Z,100698.37
2022-10-23T17:51:58.385Z,100697.80
2022-10-23T17:54:27.375Z,100701.61
2022-10-23T17:56:56.369Z,100703.63
2022-10-23T17:59:24.287Z,100702.48
2022-10-23T18:01:52.645Z,100703.77
2022-10-23T18:04:21.361Z,100705.23
2022-10-23T18:06:52.939Z,100707.38
2022-10-23T18:09:22.641Z,100712.35
2022-10-23T18:11:51.860Z,100714.40
2022-10-23T18:14:21.595Z,100712.61
2022-10-23T18:16:51.173Z,100711.31
2022-10-23T18:19:19.547Z,100709.68
2022-10-23T18:21:48.237Z,100706.48
2022-10-23T18:24:17.535Z,100701.73
2022-10-23T18:26:47.932Z,100707.13
2022-10-23T18:29:17.535Z,100707.27
2022-10-23T18:31:48.247Z,100706.87
2022-10-23T18:34:24.873Z,100705.73
2022-10-23T18:36:54.787Z,100704.56
2022-10-23T18:39:25.574Z,100710.91
2022-10-23T18:41:56.625Z,100716.60
2022-10-23T18:44:29.194Z,100719.30
2022-10-23T18:46:59.184Z,100724.81
2022-10-23T18:49:28.087Z,100726.33
2022-10-23T18:51:58.237Z,100728.53
2022-10-23T18:54:26.232Z,100725.65
2022-10-23T18:56:54.215Z,100725.06
2022-10-23T18:59:22.071Z,100718.86
2022-10-23T19:01:50.655Z,100721.22
2022-10-23T19:04:19.108Z,100725.30
2022-10-23T19:06:48.935Z,100727.45
2022-10-23T19:09:17.577Z,100732.73
2022-10-23T19:11:45.663Z,100734.52
2022-10-23T19:14:13.770Z,100734.77
2022-10-23T19:16:51.555Z,100736.54
2022-10-23T19:19:23.222Z,100732.05
2022-10-23T19:21:52.318Z,100726.25
2022-10-23T19:24:33.719Z,100724.84
2022-10-23T19:27:02.622Z,100723.00
2022-10-23T19:29:31.441Z,100716.33
2022-10-23T19:32:00.365Z,100714.21
2022-10-23T19:34:28.443Z,100711.44
2022-10-23T19:36:56.672Z,100708.42
2022-10-23T19:39:25.995Z,100700.20
2022-10-23T19:41:54.326Z,100697.76
2022-10-23T19:44:22.256Z,100699.85
2022-10-23T19:46:50.776Z,100695.46
2022-10-23T19:49:18.794Z,100692.82
2022-10-23T19:51:51.266Z,100691.02
2022-10-23T19:54:21.189Z,100684.30
2022-10-23T19:56:49.842Z,100680.57
2022-10-23T19:59:18.490Z,100684.73
2022-10-23T20:01:48.953Z,100682.62
2022-10-23T20:04:18.745Z,100681.38
2022-10-23T20:06:47.363Z,100681.77
2022-10-23T20:09:15.256Z,100679.44
2022-10-23T20:11:45.310Z,100674.83
2022-10-23T20:14:13.674Z,100677.98
2022-10-23T20:16:44.924Z,100689.21
2022-10-23T20:21:47.596Z,100698.92
2022-10-23T20:24:17.849Z,100703.80
2022-10-23T20:26:49.223Z,100710.52
2022-10-23T20:29:17.180Z,100720.08
2022-10-23T20:31:45.089Z,100719.73
2022-10-23T20:34:13.311Z,100717.38
2022-10-23T20:36:46.433Z,100714.65
2022-10-23T20:39:19.064Z,100711.95
2022-10-23T20:41:47.959Z,100717.95
2022-10-23T20:46:50.920Z,100719.79
2022-10-23T20:49:19.161Z,100721.90
2022-10-23T20:51:55.649Z,100726.53
2022-10-23T20:54:26.881Z,100736.11
2022-10-23T20:56:57.018Z,100741.43
2022-10-23T20:59:25.712Z,100741.64
2022-10-23T21:01:55.514Z,100745.89
2022-10-23T21:04:27.803Z,100748.95
2022-10-23T21:07:09.398Z,100752.73
2022-10-23T21:09:39.232Z,100758.35
2022-10-23T21:12:08.112Z,100763.31
2022-10-23T21:14:36.462Z,100763.93
2022-10-23T21:17:04.682Z,100761.48
2022-10-23T21:19:32.553Z,100759.33
2022-10-23T21:22:00.579Z,100762.06
2022-10-23T21:24:28.343Z,100768.47
2022-10-23T21:26:56.597Z,100768.58
2022-10-23T21:29:24.620Z,100766.57
2022-10-23T21:31:57.852Z,100769.72
2022-10-23T21:34:26.949Z,100765.66
2022-10-23T21:39:44.240Z,100766.16
2022-10-23T21:42:13.661Z,100759.14
2022-10-23T21:44:41.708Z,100759.39
2022-10-23T21:47:09.729Z,100758.84
2022-10-23T21:49:38.079Z,100755.85
2022-10-23T21:52:06.124Z,100760.23
2022-10-23T21:54:34.070Z,100757.73
2022-10-23T21:57:03.510Z,100752.98
2022-10-23T21:59:35.451Z,100748.05
2022-10-23T22:02:04.143Z,100743.85
2022-10-23T22:04:32.300Z,100743.06
2022-10-23T22:07:00.464Z,100746.91
2022-10-23T22:09:28.718Z,100750.67
2022-10-23T22:11:56.887Z,100753.02
2022-10-23T22:14:24.801Z,100759.11
2022-10-23T22:16:53.303Z,100767.81
2022-10-23T22:19:22.491Z,100770.49
2022-10-23T22:21:51.132Z,100774.15
2022-10-23T22:24:19.194Z,100780.52
2022-10-23T22:26:53.402Z,100783.15
2022-10-23T22:29:23.952Z,100782.34
2022-10-23T22:31:52.237Z,100784.64
2022-10-23T22:34:48.248Z,100779.73
2022-10-23T22:37:14.318Z,100778.19
2022-10-23T22:39:42.908Z,100772.08
2022-10-23T22:42:11.050Z,100769.23
2022-10-23T22:44:39.040Z,100766.79
2022-10-23T22:47:07.300Z,100767.41
2022-10-23T22:49:35.352Z,100768.15
2022-10-23T22:52:03.283Z,100774.52
2022-10-23T22:54:31.606Z,100778.54
2022-10-23T22:56:59.622Z,100774.69
2022-10-23T22:59:27.507Z,100769.65
2022-10-23T23:01:55.474Z,100768.23
2022-10-23T23:04:37.401Z,100772.91
2022-10-23T23:07:12.357Z,100781.25
2022-10-23T23:09:42.143Z,100786.55
2022-10-23T23:12:12.468Z,100785.46
2022-10-23T23:14:41.170Z,100786.07
2022-10-23T23:17:10.201Z,100786.09
2022-10-23T23:19:38.432Z,100788.23
2022-10-23T23:22:06.851Z,100786.88
2022-10-23T23:24:34.801Z,100784.02
2022-10-23T23:27:02.599Z,100779.25
2022-10-23T23:29:31.086Z,100779.52
2022-10-23T23:31:58.943Z,100775.72
2022-10-23T23:34:26.855Z,100774.13
2022-10-23T23:36:54.940Z,100773.67
2022-10-23T23:39:22.779Z,100773.33
2022-10-23T23:41:50.593Z,100775.94
2022-10-23T23:44:18.414Z,100777.20
2022-10-23T23:46:46.261Z,100774.83
2022-10-23T23:49:14.148Z,100769.55
2022-10-23T23:51:42.045Z,100764.23
2022-10-23T23:54:10.063Z,100755.73
2022-10-23T23:56:38.364Z,100743.65
2022-10-23T23:59:06.311Z,100739.45
